Bo Airport

Jump to: basic info | weather | comments

Related pages: nearby airports | nearby navaids | notams | map

Basic information (top)

Codes: KBS GFBO
Location: lon 7.944400, lat -11.761000, elev 328 ft / 100 m msl
Status: medium_airport
Scheduled airline service: yes
Links: Wikipedia Mobile

Weather (top)

Current conditions for Lungi International Airport 94nm (175km) WNW (rec'd 2014/09/30 15:00Z):

GFLL 301500Z 24009KT 9999 BKN013 FEW027CB 30/24 Q1011 RMK-CB NE/SE

Airport forecast for Lungi International Airport 94nm (175km) WNW (rec'd 2014/09/30 12:00Z):

TAF GFLL 301000Z 3012/0118 24006KT 9999 SCT013 FEW027CB 
      TEMPO 3017/3020 26010KT 9999 TS BKN011 
      BECMG 0120/0122 18005KT 9000 -TSRA BKN012 FEW026CB 
      TEMPO 0100/0104 5000 BR BKN010 27008KT 9999 SCT012 FEW027CB

Latest comments (top)

No comments yet for Bo Airport

More... (top)

See also NOTAMs and nearby airports and navaids, or visit the Bo Airport page at the main OurAirports website..